Time;durP1;ratioP1;P1;durP2;ratioP2;P2;SDS_P1;SDS_P2;PMS_P1;PMS_P2;Temp;Humidity;BMP_temperature;BMP_pressure;BME280_temperature;BME280_humidity;BME280_pressure;Samples;Min_cycle;Max_cycle;Signal;HPM_P1;HPM_P2
2021/05/28 00:01:20;;;;;;;;;;;;;;;13.34;75.06;95428.37;1836686;78;20129;-62
2021/05/28 00:03:46;;;;;;;;;;;;;;;13.32;74.77;95433.71;1836689;78;20179;-62
2021/05/28 00:06:12;;;;;;;;;;;;;;;13.36;74.53;95435.83;1836757;78;20140;-62
2021/05/28 00:08:39;;;;;;;;;;;;;;;13.38;75.54;95431.31;1836571;78;20474;-61
2021/05/28 00:11:06;;;;;;;;;;;;;;;13.37;74.56;95438.41;1839220;78;20148;-62
2021/05/28 00:13:32;;;;;;;;;;;;;;;13.32;75.29;95439.02;1841948;78;20156;-61
2021/05/28 00:15:58;;;;;;;;;;;;;;;13.21;76.66;95436.67;1842226;78;20160;-62
2021/05/28 00:18:25;;;;;;;;;;;;;;;13.21;77.28;95438.47;1842119;78;20144;-61
2021/05/28 00:20:51;;;;;;;;;;;;;;;13.20;77.30;95436.28;1842106;78;20155;-62
2021/05/28 00:23:17;;;;;;;;;;;;;;;13.19;77.68;95445.59;1842363;78;20160;-62
2021/05/28 00:25:44;;;;;;;;;;;;;;;13.15;77.30;95442.61;1842251;78;20124;-62
2021/05/28 00:28:10;;;;;;;;;;;;;;;13.15;77.07;95436.88;1842327;78;20153;-62
2021/05/28 00:30:37;;;;;;;;;;;;;;;13.14;78.24;95444.40;1842379;78;20128;-62
2021/05/28 00:33:03;;;;;;;;;;;;;;;13.12;78.07;95442.25;1842145;78;20350;-62
2021/05/28 00:35:30;;;;;;;;;;;;;;;13.14;79.23;95439.56;1842093;78;20140;-62
2021/05/28 00:37:57;;;;;;;;;;;;;;;13.20;78.59;95442.01;1842276;78;20155;-62
2021/05/28 00:40:23;;;;;;;;;;;;;;;13.26;78.33;95443.16;1842268;78;20160;-62
2021/05/28 00:42:50;;;;;;;;;;;;;;;13.32;78.29;95439.02;1842391;78;20156;-62
2021/05/28 00:45:17;;;;;;;;;;;;;;;13.33;78.79;95440.77;1842320;78;20160;-62
2021/05/28 00:47:43;;;;;;;;;;;;;;;13.36;78.69;95433.17;1842345;78;20176;-62
2021/05/28 00:50:10;;;;;;;;;;;;;;;13.39;78.30;95433.07;1842345;78;20125;-62
2021/05/28 00:52:37;;;;;;;;;;;;;;;13.41;78.40;95435.22;1842334;78;20476;-62
2021/05/28 00:55:05;;;;;;;;;;;;;;;13.39;78.75;95427.30;1814630;78;20159;-62
2021/05/28 00:57:32;;;;;;;;;;;;;;;13.39;78.13;95419.36;1842543;78;20168;-62
2021/05/28 00:59:59;;;;;;;;;;;;;;;13.32;78.61;95423.58;1842514;78;20156;-62
2021/05/28 01:02:26;;;;;;;;;;;;;;;13.24;79.43;95425.58;1842345;78;20493;-62
2021/05/28 01:04:53;;;;;;;;;;;;;;;13.20;78.78;95422.14;1842310;78;20136;-62
2021/05/28 01:07:20;;;;;;;;;;;;;;;13.17;78.06;95419.59;1842415;78;20220;-62
2021/05/28 01:09:47;;;;;;;;;;;;;;;13.21;78.32;95418.59;1842434;78;20168;-62
2021/05/28 01:12:14;;;;;;;;;;;;;;;13.21;79.28;95414.63;1834850;78;20161;-62
2021/05/28 01:14:40;;;;;;;;;;;;;;;13.15;80.34;95413.47;1833381;78;20165;-63
2021/05/28 01:17:07;;;;;;;;;;;;;;;13.12;80.14;95415.76;1833223;78;20171;-62
2021/05/28 01:19:33;;;;;;;;;;;;;;;13.14;79.28;95417.05;1833088;78;20149;-62
2021/05/28 01:22:04;;;;;;;;;;;;;;;13.15;79.61;95414.36;1833349;78;20481;-62
2021/05/28 01:24:31;;;;;;;;;;;;;;;13.16;80.38;95408.14;1833500;78;20136;-62
2021/05/28 01:26:59;;;;;;;;;;;;;;;13.14;80.87;95417.91;1833287;78;20145;-62
2021/05/28 01:29:25;;;;;;;;;;;;;;;13.16;80.89;95419.20;1833370;78;20505;-61
2021/05/28 01:31:52;;;;;;;;;;;;;;;13.22;80.12;95412.37;1833251;78;20120;-61
2021/05/28 01:34:18;;;;;;;;;;;;;;;13.22;79.70;95413.69;1833191;78;20144;-62
2021/05/28 01:36:45;;;;;;;;;;;;;;;13.15;79.51;95409.50;1833370;78;20140;-62
2021/05/28 01:39:11;;;;;;;;;;;;;;;13.09;80.18;95411.03;1833553;78;20136;-62
2021/05/28 01:41:38;;;;;;;;;;;;;;;13.14;80.46;95415.73;1833214;78;20164;-62
2021/05/28 01:44:09;;;;;;;;;;;;;;;13.18;79.54;95412.08;1833175;78;20148;-63
2021/05/28 01:46:36;;;;;;;;;;;;;;;13.21;79.17;95403.56;1833761;78;20540;-62
2021/05/28 01:49:03;;;;;;;;;;;;;;;13.11;80.37;95403.91;1833352;78;20132;-62
2021/05/28 01:51:30;;;;;;;;;;;;;;;13.09;80.33;95407.06;1833268;78;20465;-62
2021/05/28 01:53:57;;;;;;;;;;;;;;;13.08;80.28;95399.58;1833417;78;20124;-62
2021/05/28 01:56:24;;;;;;;;;;;;;;;12.98;80.92;95402.96;1833328;78;20152;-62
2021/05/28 01:58:52;;;;;;;;;;;;;;;13.05;80.89;95401.44;1833158;78;20509;-62
2021/05/28 02:01:18;;;;;;;;;;;;;;;13.09;80.68;95405.73;1833519;78;20132;-62
2021/05/28 02:03:45;;;;;;;;;;;;;;;13.02;81.32;95407.70;1833179;78;20505;-62
2021/05/28 02:06:11;;;;;;;;;;;;;;;12.94;81.58;95403.96;1833341;78;20134;-62
2021/05/28 02:08:37;;;;;;;;;;;;;;;13.01;81.63;95400.67;1833425;78;20148;-62
2021/05/28 02:11:04;;;;;;;;;;;;;;;13.00;81.64;95405.55;1833271;78;20149;-62
2021/05/28 02:13:30;;;;;;;;;;;;;;;13.04;80.96;95401.90;1833253;78;20153;-62
2021/05/28 02:15:57;;;;;;;;;;;;;;;13.12;80.79;95406.48;1833435;78;20141;-62
2021/05/28 02:18:25;;;;;;;;;;;;;;;13.16;81.04;95409.46;1833221;78;20136;-64
2021/05/28 02:20:51;;;;;;;;;;;;;;;13.23;80.30;95402.20;1833151;78;20132;-63
2021/05/28 02:23:18;;;;;;;;;;;;;;;13.28;79.91;95405.59;1833422;78;20156;-62
2021/05/28 02:25:45;;;;;;;;;;;;;;;13.25;80.19;95402.12;1833083;78;20532;-64
2021/05/28 02:28:11;;;;;;;;;;;;;;;13.21;80.44;95400.05;1833272;78;20160;-62
2021/05/28 02:30:37;;;;;;;;;;;;;;;13.24;80.34;95401.73;1833401;78;20160;-62
2021/05/28 02:33:04;;;;;;;;;;;;;;;13.15;80.95;95401.55;1833202;78;20171;-62
2021/05/28 02:35:30;;;;;;;;;;;;;;;13.15;81.02;95396.25;1833158;78;20145;-62
2021/05/28 02:37:56;;;;;;;;;;;;;;;13.19;80.56;95394.78;1833138;78;20145;-62
2021/05/28 02:40:23;;;;;;;;;;;;;;;13.11;80.13;95401.27;1833152;78;20153;-62
2021/05/28 02:42:49;;;;;;;;;;;;;;;13.05;80.95;95400.97;1833370;78;20161;-62
2021/05/28 02:45:16;;;;;;;;;;;;;;;13.01;81.30;95396.70;1833370;78;20509;-62
2021/05/28 02:47:42;;;;;;;;;;;;;;;13.01;81.32;95399.35;1833278;78;20149;-62
2021/05/28 02:50:10;;;;;;;;;;;;;;;12.97;82.15;95399.02;1832932;78;20136;-62
2021/05/28 02:52:36;;;;;;;;;;;;;;;13.03;81.58;95397.53;1833180;78;20537;-62
2021/05/28 02:55:03;;;;;;;;;;;;;;;13.04;81.61;95393.09;1833263;78;20141;-63
2021/05/28 02:57:30;;;;;;;;;;;;;;;13.09;81.60;95393.81;1833226;78;20141;-62
2021/05/28 02:59:56;;;;;;;;;;;;;;;13.11;81.75;95391.98;1833226;78;20493;-62
2021/05/28 03:02:23;;;;;;;;;;;;;;;13.19;81.29;95388.63;1833163;78;20142;-62
2021/05/28 03:04:49;;;;;;;;;;;;;;;13.23;81.00;95394.25;1833199;78;20148;-62
2021/05/28 03:07:15;;;;;;;;;;;;;;;13.17;80.53;95395.29;1833244;78;20144;-62
2021/05/28 03:09:41;;;;;;;;;;;;;;;13.23;80.29;95396.90;1801465;78;20149;-62
2021/05/28 03:12:09;;;;;;;;;;;;;;;13.28;80.44;95403.38;1835100;78;20131;-62
2021/05/28 03:14:35;;;;;;;;;;;;;;;13.33;80.27;95401.02;1836755;78;20173;-62
2021/05/28 03:17:02;;;;;;;;;;;;;;;13.40;79.96;95399.02;1836593;78;20132;-62
2021/05/28 03:19:33;;;;;;;;;;;;;;;13.44;79.83;95401.12;1836639;78;20144;-62
2021/05/28 03:24:43;;;;;;;;;;;;;;;13.37;80.78;95399.12;1836739;78;20188;-63
2021/05/28 03:27:10;;;;;;;;;;;;;;;13.37;80.95;95403.09;1836877;78;20219;-63
2021/05/28 03:29:37;;;;;;;;;;;;;;;13.20;81.31;95396.54;1836626;78;20160;-62
2021/05/28 03:32:04;;;;;;;;;;;;;;;13.10;82.21;95400.83;1836719;78;20464;-62
2021/05/28 03:34:31;;;;;;;;;;;;;;;13.02;81.67;95400.21;1836750;78;20153;-62
2021/05/28 03:36:59;;;;;;;;;;;;;;;12.96;80.98;95402.60;1836576;78;20152;-62
2021/05/28 03:39:26;;;;;;;;;;;;;;;12.89;81.79;95403.23;1837062;78;20160;-62
2021/05/28 03:41:52;;;;;;;;;;;;;;;12.83;81.11;95403.44;1836716;78;20136;-62
2021/05/28 03:44:19;;;;;;;;;;;;;;;12.81;81.08;95403.94;1836472;78;20133;-63
2021/05/28 03:46:45;;;;;;;;;;;;;;;12.80;81.77;95407.51;1836740;78;20171;-62
2021/05/28 03:49:12;;;;;;;;;;;;;;;12.79;82.70;95412.37;1836609;78;20141;-62
2021/05/28 03:51:38;;;;;;;;;;;;;;;12.84;82.33;95420.19;1836616;78;20449;-62
2021/05/28 03:54:05;;;;;;;;;;;;;;;12.90;82.72;95418.66;1836707;78;20148;-62
2021/05/28 03:56:32;;;;;;;;;;;;;;;12.95;82.75;95418.06;1836826;78;20189;-62
2021/05/28 03:58:58;;;;;;;;;;;;;;;13.03;82.68;95424.02;1836628;78;20481;-63
2021/05/28 04:01:24;;;;;;;;;;;;;;;13.08;82.81;95427.39;1836644;78;20152;-62
2021/05/28 04:03:50;;;;;;;;;;;;;;;13.12;82.61;95430.80;1836833;78;20143;-62
2021/05/28 04:06:17;;;;;;;;;;;;;;;13.18;82.27;95434.59;1836451;78;20144;-62
2021/05/28 04:08:43;;;;;;;;;;;;;;;13.18;82.20;95435.92;1836844;78;20156;-62
2021/05/28 04:11:09;;;;;;;;;;;;;;;13.14;82.73;95439.56;1836306;78;20152;-63
2021/05/28 04:13:35;;;;;;;;;;;;;;;13.11;82.33;95440.99;1833162;78;20168;-62
2021/05/28 04:16:02;;;;;;;;;;;;;;;13.04;83.00;95442.95;1801358;78;20545;-62
2021/05/28 04:18:28;;;;;;;;;;;;;;;13.11;82.97;95441.85;1833249;78;20169;-62
2021/05/28 04:20:54;;;;;;;;;;;;;;;13.21;83.03;95441.98;1832954;78;20476;-62
2021/05/28 04:23:21;;;;;;;;;;;;;;;13.29;83.10;95440.44;1833134;78;20152;-62
2021/05/28 04:25:49;;;;;;;;;;;;;;;13.35;82.60;95444.20;1833258;78;20132;-62
2021/05/28 04:28:15;;;;;;;;;;;;;;;13.41;82.72;95444.03;1833159;78;20515;-63
2021/05/28 04:30:42;;;;;;;;;;;;;;;13.46;82.06;95441.70;1833352;78;20445;-65
2021/05/28 04:33:08;;;;;;;;;;;;;;;13.44;82.26;95446.17;1832952;78;20160;-63
2021/05/28 04:35:35;;;;;;;;;;;;;;;13.49;82.13;95444.25;1832823;78;20141;-62
2021/05/28 04:38:01;;;;;;;;;;;;;;;13.64;81.84;95449.91;1833143;78;20557;-64
2021/05/28 04:40:29;;;;;;;;;;;;;;;13.74;81.47;95447.82;1832995;78;20501;-64
2021/05/28 04:42:55;;;;;;;;;;;;;;;13.81;81.04;95457.78;1833190;78;20148;-64
2021/05/28 04:45:22;;;;;;;;;;;;;;;13.74;80.93;95457.10;1833296;78;20180;-66
2021/05/28 04:47:48;;;;;;;;;;;;;;;13.63;81.24;95464.52;1833138;78;20161;-67
2021/05/28 04:50:15;;;;;;;;;;;;;;;13.65;80.92;95466.67;1832947;78;20160;-66
2021/05/28 04:52:42;;;;;;;;;;;;;;;13.64;81.29;95464.48;1833214;78;20482;-67
2021/05/28 04:55:10;;;;;;;;;;;;;;;13.68;82.78;95467.03;1833079;78;20157;-67
2021/05/28 04:57:37;;;;;;;;;;;;;;;13.89;82.49;95469.45;1833213;78;20140;-67
2021/05/28 05:00:04;;;;;;;;;;;;;;;14.05;82.47;95465.34;1833147;78;20156;-65
2021/05/28 05:02:32;;;;;;;;;;;;;;;14.14;81.88;95465.51;1824115;78;20547;-69
2021/05/28 05:04:58;;;;;;;;;;;;;;;14.26;81.17;95466.37;1798742;80;20484;-67
2021/05/28 05:07:25;;;;;;;;;;;;;;;14.37;80.53;95469.54;1798925;80;20174;-64
2021/05/28 05:09:51;;;;;;;;;;;;;;;14.51;80.19;95466.37;1798589;80;20155;-64
2021/05/28 05:12:17;;;;;;;;;;;;;;;14.59;79.88;95460.82;1798921;79;20155;-65
2021/05/28 05:14:43;;;;;;;;;;;;;;;14.60;78.92;95462.11;1798652;80;20126;-63
2021/05/28 05:17:10;;;;;;;;;;;;;;;14.55;78.55;95457.89;1798925;80;20159;-63
2021/05/28 05:19:36;;;;;;;;;;;;;;;14.65;78.46;95456.63;1798796;80;20496;-65
2021/05/28 05:22:02;;;;;;;;;;;;;;;14.66;79.57;95454.37;1798648;80;20142;-62
2021/05/28 05:24:28;;;;;;;;;;;;;;;14.70;79.32;95456.86;1798896;80;20155;-61
2021/05/28 05:26:55;;;;;;;;;;;;;;;14.69;78.24;95455.14;1798881;80;20187;-61
2021/05/28 05:29:21;;;;;;;;;;;;;;;14.79;77.77;95453.45;1798817;80;20190;-62
2021/05/28 05:31:48;;;;;;;;;;;;;;;14.74;78.00;95450.10;1799152;80;20139;-62
2021/05/28 05:34:14;;;;;;;;;;;;;;;14.71;78.29;95451.94;1798963;80;20155;-62
2021/05/28 05:36:41;;;;;;;;;;;;;;;14.71;77.68;95449.75;1798942;80;20187;-62
2021/05/28 05:39:08;;;;;;;;;;;;;;;14.76;78.33;95457.09;1799033;80;20186;-64
2021/05/28 05:41:34;;;;;;;;;;;;;;;14.82;78.33;95455.55;1798881;80;20158;-63
2021/05/28 05:44:01;;;;;;;;;;;;;;;14.87;77.97;95448.74;1798947;80;20150;-62
2021/05/28 05:46:27;;;;;;;;;;;;;;;14.86;78.63;95440.34;1799035;80;20139;-60
2021/05/28 05:48:53;;;;;;;;;;;;;;;14.84;78.48;95452.38;1799147;80;20476;-62
2021/05/28 05:51:20;;;;;;;;;;;;;;;14.88;78.03;95453.97;1798803;80;20213;-62
2021/05/28 05:53:46;;;;;;;;;;;;;;;14.87;78.84;95450.06;1799031;80;20131;-61
2021/05/28 05:56:13;;;;;;;;;;;;;;;14.93;79.92;95447.16;1798984;80;20480;-61
2021/05/28 05:58:41;;;;;;;;;;;;;;;14.98;79.23;95456.30;1798998;80;20519;-61
2021/05/28 06:01:08;;;;;;;;;;;;;;;14.99;78.71;95454.89;1799101;80;20210;-62
2021/05/28 06:03:35;;;;;;;;;;;;;;;15.01;78.81;95456.17;1798768;80;20182;-62
2021/05/28 06:06:01;;;;;;;;;;;;;;;15.00;78.74;95453.13;1798884;80;20483;-62
2021/05/28 06:08:27;;;;;;;;;;;;;;;14.98;79.22;95450.52;1798975;80;20158;-62
2021/05/28 06:10:54;;;;;;;;;;;;;;;15.06;79.23;95451.55;1798901;80;20234;-61
2021/05/28 06:13:20;;;;;;;;;;;;;;;15.12;80.26;95451.33;1798874;80;20487;-64
2021/05/28 06:15:47;;;;;;;;;;;;;;;15.19;79.76;95447.48;1799016;80;20147;-64
2021/05/28 06:18:13;;;;;;;;;;;;;;;15.25;79.52;95451.72;1798663;80;20147;-63
2021/05/28 06:20:39;;;;;;;;;;;;;;;15.29;79.65;95447.52;1798878;80;20163;-65
2021/05/28 06:23:05;;;;;;;;;;;;;;;15.33;79.07;95445.63;1799122;80;20159;-64
2021/05/28 06:25:31;;;;;;;;;;;;;;;15.37;78.60;95445.89;1798789;80;20595;-63
2021/05/28 06:27:58;;;;;;;;;;;;;;;15.44;78.28;95444.72;1799077;80;20169;-64
2021/05/28 06:30:24;;;;;;;;;;;;;;;15.47;78.61;95440.63;1813360;77;20157;-65
2021/05/28 06:32:51;;;;;;;;;;;;;;;15.57;78.19;95440.66;1807600;78;20564;-62
2021/05/28 06:35:17;;;;;;;;;;;;;;;15.70;77.36;95439.73;1833157;78;20141;-61
2021/05/28 06:37:43;;;;;;;;;;;;;;;15.78;77.68;95444.73;1833174;78;20136;-63
2021/05/28 06:40:13;;;;;;;;;;;;;;;15.79;76.34;95447.31;1828607;78;20138;-63
2021/05/28 06:42:39;;;;;;;;;;;;;;;15.88;76.50;95443.89;1811982;78;20202;-63
2021/05/28 06:45:06;;;;;;;;;;;;;;;15.97;76.77;95444.81;1811300;78;20159;-63
2021/05/28 06:47:33;;;;;;;;;;;;;;;16.02;76.68;95444.16;1820634;78;20165;-63
2021/05/28 06:50:00;;;;;;;;;;;;;;;16.14;76.05;95442.77;1807875;78;20487;-62
2021/05/28 06:52:26;;;;;;;;;;;;;;;16.19;76.17;95443.45;1791486;79;20163;-64
2021/05/28 06:54:53;;;;;;;;;;;;;;;16.27;75.83;95441.31;1791643;80;20151;-63
2021/05/28 06:57:22;;;;;;;;;;;;;;;16.39;74.99;95442.58;1791580;80;20262;-63
2021/05/28 06:59:54;;;;;;;;;;;;;;;16.52;74.31;95440.23;1791294;80;20519;-63
2021/05/28 07:02:29;;;;;;;;;;;;;;;16.52;74.78;95437.10;1791306;80;20218;-64
2021/05/28 07:05:04;;;;;;;;;;;;;;;16.60;74.45;95434.09;1791363;80;20457;-64
2021/05/28 07:07:32;;;;;;;;;;;;;;;16.71;73.42;95434.50;1791206;80;20238;-64
2021/05/28 07:10:00;;;;;;;;;;;;;;;16.71;74.05;95434.97;1791699;80;20151;-64
2021/05/28 07:12:26;;;;;;;;;;;;;;;16.74;74.41;95434.35;1792960;80;20195;-63
2021/05/28 07:14:53;;;;;;;;;;;;;;;16.78;74.21;95435.98;1797288;80;20250;-63
2021/05/28 07:17:19;;;;;;;;;;;;;;;16.72;73.60;95438.02;1797473;80;20249;-63
2021/05/28 07:19:45;;;;;;;;;;;;;;;16.69;73.55;95437.69;1797462;79;20222;-63
2021/05/28 07:22:12;;;;;;;;;;;;;;;16.67;73.10;95442.22;1797254;78;20194;-62
2021/05/28 07:24:38;;;;;;;;;;;;;;;16.60;73.80;95436.76;1813302;78;20163;-59
2021/05/28 07:27:05;;;;;;;;;;;;;;;16.68;73.69;95441.27;1833156;78;20163;-61
2021/05/28 07:29:32;;;;;;;;;;;;;;;16.69;72.85;95440.36;1826565;78;20152;-58
2021/05/28 07:31:58;;;;;;;;;;;;;;;16.72;72.47;95443.34;1830888;78;20493;-60
2021/05/28 07:34:25;;;;;;;;;;;;;;;16.76;71.66;95448.48;1829769;78;20238;-60
2021/05/28 07:36:51;;;;;;;;;;;;;;;16.78;72.23;95447.98;1826178;78;20183;-59
2021/05/28 07:39:19;;;;;;;;;;;;;;;16.76;71.58;95448.95;1827861;78;20194;-60
2021/05/28 07:41:46;;;;;;;;;;;;;;;16.75;71.55;95449.86;1823558;78;20172;-61
2021/05/28 07:44:13;;;;;;;;;;;;;;;16.75;71.68;95452.05;1814940;78;20166;-59
2021/05/28 07:46:43;;;;;;;;;;;;;;;16.76;72.04;95450.28;1805978;79;20475;-60
2021/05/28 07:49:08;;;;;;;;;;;;;;;16.77;71.90;95446.19;1805874;79;20166;-61
2021/05/28 07:51:34;;;;;;;;;;;;;;;16.84;71.86;95450.35;1806002;79;20142;-63
2021/05/28 07:54:01;;;;;;;;;;;;;;;16.84;72.54;95453.02;1806371;79;20178;-63
2021/05/28 07:56:27;;;;;;;;;;;;;;;16.92;72.29;95458.47;1806019;79;20494;-61
2021/05/28 07:58:53;;;;;;;;;;;;;;;16.96;71.91;95455.59;1806205;79;20149;-61
2021/05/28 08:01:19;;;;;;;;;;;;;;;16.98;71.92;95449.70;1806061;79;20562;-60
2021/05/28 08:03:46;;;;;;;;;;;;;;;16.96;72.50;95447.60;1806161;79;20158;-63
2021/05/28 08:06:12;;;;;;;;;;;;;;;17.03;71.63;95447.72;1806110;78;20468;-61
2021/05/28 08:08:38;;;;;;;;;;;;;;;17.13;71.47;95447.27;1806275;79;20143;-63
2021/05/28 08:11:05;;;;;;;;;;;;;;;17.14;71.09;95454.35;1806135;79;20134;-63
2021/05/28 08:13:32;;;;;;;;;;;;;;;17.22;71.70;95453.05;1802920;79;20138;-63
2021/05/28 08:15:59;;;;;;;;;;;;;;;17.29;69.66;95454.49;1800482;80;20143;-63
2021/05/28 08:18:27;;;;;;;;;;;;;;;17.32;70.22;95453.48;1800416;80;20243;-63
2021/05/28 08:20:54;;;;;;;;;;;;;;;17.39;69.69;95456.73;1800398;80;20146;-64
2021/05/28 08:23:20;;;;;;;;;;;;;;;17.46;69.41;95456.36;1800413;80;20143;-64
2021/05/28 08:25:49;;;;;;;;;;;;;;;17.56;68.78;95451.90;1800443;80;20147;-64
2021/05/28 08:28:16;;;;;;;;;;;;;;;17.61;68.35;95449.88;1800810;80;20203;-61
2021/05/28 08:30:43;;;;;;;;;;;;;;;17.69;68.76;95451.25;1800476;80;20155;-63
2021/05/28 08:33:12;;;;;;;;;;;;;;;17.78;68.30;95456.59;1800761;80;20131;-64
2021/05/28 08:35:43;;;;;;;;;;;;;;;17.93;68.07;95457.20;1801552;78;20311;-62
2021/05/28 08:38:11;;;;;;;;;;;;;;;17.97;67.09;95455.70;1814259;79;20172;-66
2021/05/28 08:40:38;;;;;;;;;;;;;;;18.04;66.90;95454.45;1814264;79;20145;-65
2021/05/28 08:43:06;;;;;;;;;;;;;;;18.06;65.96;95459.26;1814397;79;20481;-64
2021/05/28 08:45:40;;;;;;;;;;;;;;;18.06;65.98;95458.78;1814174;79;20149;-64
2021/05/28 08:48:09;;;;;;;;;;;;;;;18.14;65.77;95465.96;1814424;79;20153;-64
2021/05/28 08:50:37;;;;;;;;;;;;;;;18.14;64.89;95463.29;1813760;79;20172;-65
2021/05/28 08:53:05;;;;;;;;;;;;;;;18.13;64.73;95465.55;1813677;79;20161;-66
2021/05/28 08:55:33;;;;;;;;;;;;;;;18.21;65.43;95466.97;1814145;79;20152;-63
2021/05/28 08:58:01;;;;;;;;;;;;;;;18.26;64.36;95471.61;1814431;79;20482;-64
2021/05/28 09:00:28;;;;;;;;;;;;;;;18.22;65.29;95465.57;1785146;79;20161;-62
2021/05/28 09:02:55;;;;;;;;;;;;;;;18.19;64.26;95472.86;1814180;79;20212;-62
2021/05/28 09:05:23;;;;;;;;;;;;;;;18.24;65.67;95474.81;1814427;79;20145;-63
2021/05/28 09:07:57;;;;;;;;;;;;;;;18.32;64.57;95472.17;1814384;79;20470;-63
2021/05/28 09:10:32;;;;;;;;;;;;;;;18.41;64.24;95471.30;1814480;79;20157;-63
2021/05/28 09:13:08;;;;;;;;;;;;;;;18.37;62.90;95479.95;1815742;79;20481;-62
2021/05/28 09:15:35;;;;;;;;;;;;;;;18.40;63.21;95473.11;1820330;79;20176;-62
2021/05/28 09:18:02;;;;;;;;;;;;;;;18.35;62.73;95480.50;1820377;79;20176;-62
2021/05/28 09:20:28;;;;;;;;;;;;;;;18.30;62.89;95483.88;1820052;79;20188;-62
2021/05/28 09:23:16;;;;;;;;;;;;;;;18.28;63.36;95484.42;1819987;79;20462;-62
2021/05/28 09:25:57;;;;;;;;;;;;;;;18.28;63.31;95489.28;1820161;79;20160;-62
2021/05/28 09:28:25;;;;;;;;;;;;;;;18.26;63.29;95491.16;1820154;79;20141;-62
2021/05/28 09:31:01;;;;;;;;;;;;;;;18.26;63.12;95483.63;1820334;79;20207;-62
2021/05/28 09:33:33;;;;;;;;;;;;;;;18.32;62.76;95483.30;1816704;79;20175;-62
2021/05/28 09:36:10;;;;;;;;;;;;;;;18.37;62.39;95479.95;1820070;79;20133;-62
2021/05/28 09:38:37;;;;;;;;;;;;;;;18.37;62.06;95482.15;1820156;79;20500;-62
2021/05/28 09:41:05;;;;;;;;;;;;;;;18.37;61.41;95482.63;1819744;79;20481;-63
2021/05/28 09:43:32;;;;;;;;;;;;;;;18.29;61.56;95486.98;1820318;79;20169;-62
2021/05/28 09:45:59;;;;;;;;;;;;;;;18.36;62.27;95491.56;1820299;79;20153;-62
2021/05/28 09:48:31;;;;;;;;;;;;;;;18.43;61.82;95488.98;1820228;79;20149;-62
2021/05/28 09:51:06;;;;;;;;;;;;;;;18.49;60.16;95490.46;1819809;79;20512;-62
2021/05/28 09:53:44;;;;;;;;;;;;;;;18.57;59.82;95486.91;1820215;79;20141;-64
2021/05/28 09:56:28;;;;;;;;;;;;;;;18.66;59.97;95486.92;1820047;79;20465;-64
2021/05/28 09:59:09;;;;;;;;;;;;;;;18.65;59.48;95486.52;1820342;79;20497;-64
2021/05/28 10:01:33;;;;;;;;;;;;;;;18.63;58.78;95488.43;1819681;79;20137;-64
2021/05/28 10:04:12;;;;;;;;;;;;;;;18.67;58.68;95490.87;1820247;79;20141;-64
2021/05/28 10:06:41;;;;;;;;;;;;;;;18.73;58.98;95495.02;1820143;79;20498;-64
2021/05/28 10:09:10;;;;;;;;;;;;;;;18.85;59.19;95499.77;1820002;79;20522;-64
2021/05/28 10:11:38;;;;;;;;;;;;;;;18.98;57.63;95497.30;1793209;79;20157;-64
2021/05/28 10:14:06;;;;;;;;;;;;;;;19.11;57.20;95497.51;1820243;79;20141;-65
2021/05/28 10:16:32;;;;;;;;;;;;;;;19.25;56.68;95493.59;1820060;79;20176;-64
2021/05/28 10:18:59;;;;;;;;;;;;;;;19.43;56.11;95491.27;1820526;79;20134;-65
2021/05/28 10:21:27;;;;;;;;;;;;;;;19.60;55.61;95489.45;1820244;79;20156;-65
2021/05/28 10:23:54;;;;;;;;;;;;;;;19.67;52.40;95489.05;1819968;79;20137;-64
2021/05/28 10:26:29;;;;;;;;;;;;;;;19.80;52.72;95488.37;1820287;79;20193;-64
2021/05/28 10:28:56;;;;;;;;;;;;;;;19.96;52.93;95485.67;1819888;79;20200;-64
2021/05/28 10:31:51;;;;;;;;;;;;;;;20.05;52.29;95486.02;1820217;79;20164;-64
2021/05/28 10:34:18;;;;;;;;;;;;;;;20.25;52.18;95492.89;1820360;79;20172;-64
2021/05/28 10:36:45;;;;;;;;;;;;;;;20.39;50.83;95488.08;1793020;79;20137;-64
2021/05/28 10:39:15;;;;;;;;;;;;;;;20.57;52.19;95486.16;1820011;79;20140;-64
2021/05/28 10:41:55;;;;;;;;;;;;;;;20.74;50.63;95483.81;1819642;79;20156;-62
2021/05/28 10:44:25;;;;;;;;;;;;;;;20.87;50.47;95483.92;1820162;79;20149;-63
2021/05/28 10:47:13;;;;;;;;;;;;;;;20.96;52.10;95480.66;1820248;79;20190;-63
2021/05/28 10:49:48;;;;;;;;;;;;;;;21.10;51.78;95482.02;1819342;79;20149;-62
2021/05/28 10:52:18;;;;;;;;;;;;;;;21.01;48.53;95479.90;1820074;79;20153;-62
2021/05/28 10:54:48;;;;;;;;;;;;;;;21.00;46.62;95484.03;1818822;79;20509;-63
2021/05/28 10:57:27;;;;;;;;;;;;;;;20.82;46.18;95486.03;1819142;79;20164;-64
2021/05/28 10:59:56;;;;;;;;;;;;;;;20.89;48.14;95478.85;1819441;79;20469;-64
2021/05/28 11:02:48;;;;;;;;;;;;;;;21.09;48.61;95480.31;1820217;79;20153;-64
2021/05/28 11:05:16;;;;;;;;;;;;;;;21.15;49.27;95471.87;1820253;79;20462;-64
2021/05/28 11:07:44;;;;;;;;;;;;;;;21.14;49.81;95472.84;1820177;79;20148;-64
2021/05/28 11:10:21;;;;;;;;;;;;;;;21.12;47.73;95469.38;1820301;79;20133;-64
2021/05/28 11:12:48;;;;;;;;;;;;;;;20.93;46.37;95478.17;1819784;79;20507;-64
2021/05/28 11:15:16;;;;;;;;;;;;;;;20.91;47.34;95482.28;1820228;79;20153;-64
2021/05/28 11:17:58;;;;;;;;;;;;;;;20.91;48.93;95478.25;1820270;79;20167;-63
2021/05/28 11:20:28;;;;;;;;;;;;;;;20.92;47.88;95480.48;1819972;79;20148;-63
2021/05/28 11:22:54;;;;;;;;;;;;;;;20.90;47.89;95475.20;1793263;79;20145;-63
2021/05/28 11:25:22;;;;;;;;;;;;;;;21.03;48.04;95479.33;1820193;79;20446;-63
2021/05/28 11:27:55;;;;;;;;;;;;;;;21.00;47.79;95479.53;1820152;79;20152;-64
2021/05/28 11:30:22;;;;;;;;;;;;;;;21.03;47.03;95479.33;1819886;79;20491;-64
2021/05/28 11:32:50;;;;;;;;;;;;;;;21.05;47.70;95480.11;1819791;79;21090;-64
2021/05/28 11:35:22;;;;;;;;;;;;;;;21.24;47.94;95472.24;1820133;79;20501;-64
2021/05/28 11:38:00;;;;;;;;;;;;;;;21.51;48.19;95479.07;1819929;79;20469;-64
2021/05/28 11:40:29;;;;;;;;;;;;;;;21.68;47.29;95473.98;1819662;79;20164;-64
2021/05/28 11:43:11;;;;;;;;;;;;;;;21.99;47.67;95475.52;1820332;79;20125;-64
2021/05/28 11:45:44;;;;;;;;;;;;;;;21.99;46.66;95476.86;1820237;79;20153;-65
2021/05/28 11:48:13;;;;;;;;;;;;;;;21.98;49.05;95478.69;1820155;79;20149;-64
2021/05/28 11:50:40;;;;;;;;;;;;;;;21.99;49.55;95476.38;1819525;79;20161;-64
2021/05/28 11:53:08;;;;;;;;;;;;;;;22.00;49.44;95475.91;1820013;79;20495;-64
2021/05/28 11:55:49;;;;;;;;;;;;;;;21.96;49.50;95483.30;1820048;79;20180;-63
2021/05/28 11:58:18;;;;;;;;;;;;;;;21.60;50.03;95487.89;1820241;79;20149;-64
2021/05/28 12:00:46;;;;;;;;;;;;;;;21.03;50.75;95486.03;1820214;79;20142;-63
2021/05/28 12:03:13;;;;;;;;;;;;;;;20.45;51.50;95497.09;1819696;79;20542;-64
2021/05/28 12:05:41;;;;;;;;;;;;;;;20.00;53.51;95500.62;1820122;79;20145;-64
2021/05/28 12:08:17;;;;;;;;;;;;;;;19.50;55.08;95505.63;1820007;79;20160;-66
2021/05/28 12:10:56;;;;;;;;;;;;;;;19.21;53.73;95509.44;1820286;79;20176;-64
2021/05/28 12:13:24;;;;;;;;;;;;;;;19.25;53.82;95506.97;1820057;79;20157;-64
2021/05/28 12:15:53;;;;;;;;;;;;;;;19.52;53.82;95497.05;1820129;79;20505;-64
2021/05/28 12:18:28;;;;;;;;;;;;;;;19.79;53.25;95488.84;1820330;79;20152;-64
2021/05/28 12:21:03;;;;;;;;;;;;;;;20.45;52.59;95476.98;1820316;79;20128;-63
2021/05/28 12:23:30;;;;;;;;;;;;;;;21.06;50.79;95493.03;1819983;79;20450;-63
2021/05/28 12:26:00;;;;;;;;;;;;;;;21.23;51.23;95482.13;1820324;79;20165;-64
2021/05/28 12:28:33;;;;;;;;;;;;;;;21.55;49.21;95485.98;1816588;79;20505;-64
2021/05/28 12:31:16;;;;;;;;;;;;;;;21.31;49.63;95484.32;1820239;79;20165;-64
2021/05/28 12:34:08;;;;;;;;;;;;;;;21.29;49.37;95482.20;1820342;79;20173;-64
2021/05/28 12:36:37;;;;;;;;;;;;;;;21.53;49.51;95482.53;1820092;79;20486;-64
2021/05/28 12:39:07;;;;;;;;;;;;;;;22.06;48.04;95477.33;1820315;79;20137;-64
2021/05/28 12:41:34;;;;;;;;;;;;;;;22.57;48.70;95474.83;1820278;79;20212;-65
2021/05/28 12:44:03;;;;;;;;;;;;;;;22.77;45.84;95478.36;1820256;79;20160;-64
2021/05/28 12:46:34;;;;;;;;;;;;;;;22.55;45.72;95481.64;1820482;79;20470;-64
2021/05/28 12:49:05;;;;;;;;;;;;;;;22.19;45.50;95483.61;1820476;79;20474;-64
2021/05/28 12:51:35;;;;;;;;;;;;;;;21.71;46.38;95489.39;1820424;79;20496;-64
2021/05/28 12:54:14;;;;;;;;;;;;;;;21.28;46.97;95490.74;1820369;79;20157;-64
2021/05/28 12:56:41;;;;;;;;;;;;;;;21.25;48.82;95483.38;1816716;79;20184;-64